sensor_id;sensor_type;location;lat;lon;timestamp;temperature;humidity
17495;DHT22;8864;51.970;4.614;2023-08-12T00:02:16;24.80;76.20
17495;DHT22;8864;51.970;4.614;2023-08-12T00:04:45;24.80;75.70
17495;DHT22;8864;51.970;4.614;2023-08-12T00:07:13;24.80;75.70
17495;DHT22;8864;51.970;4.614;2023-08-12T00:09:40;24.80;75.70
17495;DHT22;8864;51.970;4.614;2023-08-12T00:12:08;24.80;75.80
17495;DHT22;8864;51.970;4.614;2023-08-12T00:14:35;24.80;75.90
17495;DHT22;8864;51.970;4.614;2023-08-12T00:17:04;24.80;75.90
17495;DHT22;8864;51.970;4.614;2023-08-12T00:19:31;24.80;75.90
17495;DHT22;8864;51.970;4.614;2023-08-12T00:21:58;24.80;75.90
17495;DHT22;8864;51.970;4.614;2023-08-12T00:24:25;24.80;75.90
17495;DHT22;8864;51.970;4.614;2023-08-12T00:26:52;24.80;75.90
17495;DHT22;8864;51.970;4.614;2023-08-12T00:29:19;24.80;75.90
17495;DHT22;8864;51.970;4.614;2023-08-12T00:31:46;24.80;75.90
17495;DHT22;8864;51.970;4.614;2023-08-12T00:34:14;24.80;75.80
17495;DHT22;8864;51.970;4.614;2023-08-12T00:36:41;24.80;75.90
17495;DHT22;8864;51.970;4.614;2023-08-12T00:39:11;24.80;76.00
17495;DHT22;8864;51.970;4.614;2023-08-12T00:41:38;24.80;76.20
17495;DHT22;8864;51.970;4.614;2023-08-12T00:44:05;24.80;76.30
17495;DHT22;8864;51.970;4.614;2023-08-12T00:46:33;24.80;76.30
17495;DHT22;8864;51.970;4.614;2023-08-12T00:49:00;24.80;76.30
17495;DHT22;8864;51.970;4.614;2023-08-12T00:51:29;24.80;76.30
17495;DHT22;8864;51.970;4.614;2023-08-12T00:53:57;24.80;76.40
17495;DHT22;8864;51.970;4.614;2023-08-12T00:56:26;24.80;76.40
17495;DHT22;8864;51.970;4.614;2023-08-12T00:58:53;24.80;76.40
17495;DHT22;8864;51.970;4.614;2023-08-12T01:01:21;24.80;76.50
17495;DHT22;8864;51.970;4.614;2023-08-12T01:03:48;24.80;76.50
17495;DHT22;8864;51.970;4.614;2023-08-12T01:06:15;24.80;76.50
17495;DHT22;8864;51.970;4.614;2023-08-12T01:08:44;24.80;76.60
17495;DHT22;8864;51.970;4.614;2023-08-12T01:11:16;24.80;76.60
17495;DHT22;8864;51.970;4.614;2023-08-12T01:13:52;24.80;76.60
17495;DHT22;8864;51.970;4.614;2023-08-12T01:16:21;24.80;76.60
17495;DHT22;8864;51.970;4.614;2023-08-12T01:18:51;24.80;76.60
17495;DHT22;8864;51.970;4.614;2023-08-12T01:21:21;24.80;76.70
17495;DHT22;8864;51.970;4.614;2023-08-12T01:23:49;24.80;76.70
17495;DHT22;8864;51.970;4.614;2023-08-12T01:26:17;24.80;76.80
17495;DHT22;8864;51.970;4.614;2023-08-12T01:28:44;24.80;76.70
17495;DHT22;8864;51.970;4.614;2023-08-12T01:31:17;24.80;76.70
17495;DHT22;8864;51.970;4.614;2023-08-12T01:33:49;24.80;76.80
17495;DHT22;8864;51.970;4.614;2023-08-12T01:36:19;24.80;76.70
17495;DHT22;8864;51.970;4.614;2023-08-12T01:38:48;24.80;76.70
17495;DHT22;8864;51.970;4.614;2023-08-12T01:41:18;24.80;76.80
17495;DHT22;8864;51.970;4.614;2023-08-12T01:43:47;24.80;77.10
17495;DHT22;8864;51.970;4.614;2023-08-12T01:46:14;24.80;76.80
17495;DHT22;8864;51.970;4.614;2023-08-12T01:48:41;24.80;76.80
17495;DHT22;8864;51.970;4.614;2023-08-12T01:51:10;24.80;76.80
17495;DHT22;8864;51.970;4.614;2023-08-12T01:53:37;24.80;76.90
17495;DHT22;8864;51.970;4.614;2023-08-12T01:56:06;24.80;76.90
17495;DHT22;8864;51.970;4.614;2023-08-12T01:58:33;24.80;76.90
17495;DHT22;8864;51.970;4.614;2023-08-12T02:01:00;24.80;76.90
17495;DHT22;8864;51.970;4.614;2023-08-12T02:03:27;24.80;77.00
17495;DHT22;8864;51.970;4.614;2023-08-12T02:05:54;24.80;77.00
17495;DHT22;8864;51.970;4.614;2023-08-12T02:08:21;24.80;77.00
17495;DHT22;8864;51.970;4.614;2023-08-12T02:10:48;24.80;77.00
17495;DHT22;8864;51.970;4.614;2023-08-12T02:13:17;24.80;77.10
17495;DHT22;8864;51.970;4.614;2023-08-12T02:15:44;24.80;77.00
17495;DHT22;8864;51.970;4.614;2023-08-12T02:18:11;24.80;77.00
17495;DHT22;8864;51.970;4.614;2023-08-12T02:20:38;24.80;77.00
17495;DHT22;8864;51.970;4.614;2023-08-12T02:23:06;24.80;77.10
17495;DHT22;8864;51.970;4.614;2023-08-12T02:25:34;24.80;77.10
17495;DHT22;8864;51.970;4.614;2023-08-12T02:28:01;24.80;77.10
17495;DHT22;8864;51.970;4.614;2023-08-12T02:30:30;24.80;77.10
17495;DHT22;8864;51.970;4.614;2023-08-12T02:32:57;24.80;77.10
17495;DHT22;8864;51.970;4.614;2023-08-12T02:35:24;24.80;77.10
17495;DHT22;8864;51.970;4.614;2023-08-12T02:37:51;24.80;77.10
17495;DHT22;8864;51.970;4.614;2023-08-12T02:40:18;24.80;77.20
17495;DHT22;8864;51.970;4.614;2023-08-12T02:42:45;24.80;77.30
17495;DHT22;8864;51.970;4.614;2023-08-12T02:45:12;24.80;77.30
17495;DHT22;8864;51.970;4.614;2023-08-12T02:47:42;24.80;77.40
17495;DHT22;8864;51.970;4.614;2023-08-12T02:50:09;24.80;77.30
17495;DHT22;8864;51.970;4.614;2023-08-12T02:52:36;24.80;77.30
17495;DHT22;8864;51.970;4.614;2023-08-12T02:55:04;24.80;77.20
17495;DHT22;8864;51.970;4.614;2023-08-12T02:57:31;24.80;77.20
17495;DHT22;8864;51.970;4.614;2023-08-12T03:00:00;24.80;77.20
17495;DHT22;8864;51.970;4.614;2023-08-12T03:02:29;24.80;77.30
17495;DHT22;8864;51.970;4.614;2023-08-12T03:04:57;24.80;77.30
17495;DHT22;8864;51.970;4.614;2023-08-12T03:07:24;24.80;77.30
17495;DHT22;8864;51.970;4.614;2023-08-12T03:09:51;24.80;77.30
17495;DHT22;8864;51.970;4.614;2023-08-12T03:12:20;24.80;77.30
17495;DHT22;8864;51.970;4.614;2023-08-12T03:14:47;24.70;77.30
17495;DHT22;8864;51.970;4.614;2023-08-12T03:17:14;24.80;77.30
17495;DHT22;8864;51.970;4.614;2023-08-12T03:19:41;24.80;77.30
17495;DHT22;8864;51.970;4.614;2023-08-12T03:22:10;24.80;77.30
17495;DHT22;8864;51.970;4.614;2023-08-12T03:24:37;24.70;77.30
17495;DHT22;8864;51.970;4.614;2023-08-12T03:27:06;24.80;77.40
17495;DHT22;8864;51.970;4.614;2023-08-12T03:29:33;24.70;77.40
17495;DHT22;8864;51.970;4.614;2023-08-12T03:32:00;24.80;77.50
17495;DHT22;8864;51.970;4.614;2023-08-12T03:34:28;24.80;77.50
17495;DHT22;8864;51.970;4.614;2023-08-12T03:36:55;24.80;77.50
17495;DHT22;8864;51.970;4.614;2023-08-12T03:39:24;24.70;77.50
17495;DHT22;8864;51.970;4.614;2023-08-12T03:41:51;24.80;77.60
17495;DHT22;8864;51.970;4.614;2023-08-12T03:44:18;24.70;77.50
17495;DHT22;8864;51.970;4.614;2023-08-12T03:46:45;24.80;77.60
17495;DHT22;8864;51.970;4.614;2023-08-12T03:49:12;24.80;77.60
17495;DHT22;8864;51.970;4.614;2023-08-12T03:51:39;24.70;77.60
17495;DHT22;8864;51.970;4.614;2023-08-12T03:54:06;24.70;77.70
17495;DHT22;8864;51.970;4.614;2023-08-12T03:56:35;24.70;77.70
17495;DHT22;8864;51.970;4.614;2023-08-12T03:59:02;24.80;77.70
17495;DHT22;8864;51.970;4.614;2023-08-12T04:01:29;24.70;77.70
17495;DHT22;8864;51.970;4.614;2023-08-12T04:03:57;24.80;77.70
17495;DHT22;8864;51.970;4.614;2023-08-12T04:06:24;24.80;77.80
17495;DHT22;8864;51.970;4.614;2023-08-12T04:08:51;24.60;77.70
17495;DHT22;8864;51.970;4.614;2023-08-12T04:11:18;24.70;77.70
17495;DHT22;8864;51.970;4.614;2023-08-12T04:13:46;24.70;77.90
17495;DHT22;8864;51.970;4.614;2023-08-12T04:16:13;24.70;77.80
17495;DHT22;8864;51.970;4.614;2023-08-12T04:18:40;24.70;77.80
17495;DHT22;8864;51.970;4.614;2023-08-12T04:21:08;24.80;77.90
17495;DHT22;8864;51.970;4.614;2023-08-12T04:23:35;24.80;77.90
17495;DHT22;8864;51.970;4.614;2023-08-12T04:26:02;24.80;77.90
17495;DHT22;8864;51.970;4.614;2023-08-12T04:28:29;24.80;78.00
17495;DHT22;8864;51.970;4.614;2023-08-12T04:30:57;24.80;77.90
17495;DHT22;8864;51.970;4.614;2023-08-12T04:33:24;24.70;77.90
17495;DHT22;8864;51.970;4.614;2023-08-12T04:35:52;24.70;78.00
17495;DHT22;8864;51.970;4.614;2023-08-12T04:38:20;24.80;78.20
17495;DHT22;8864;51.970;4.614;2023-08-12T04:40:49;24.70;78.20
17495;DHT22;8864;51.970;4.614;2023-08-12T04:43:16;24.70;78.50
17495;DHT22;8864;51.970;4.614;2023-08-12T04:45:45;24.80;78.80
17495;DHT22;8864;51.970;4.614;2023-08-12T04:48:14;24.70;78.90
17495;DHT22;8864;51.970;4.614;2023-08-12T04:50:42;24.70;79.10
17495;DHT22;8864;51.970;4.614;2023-08-12T04:53:09;24.70;79.20
17495;DHT22;8864;51.970;4.614;2023-08-12T04:55:36;24.70;79.40
17495;DHT22;8864;51.970;4.614;2023-08-12T04:58:04;24.80;79.40
17495;DHT22;8864;51.970;4.614;2023-08-12T05:00:31;24.70;79.60
17495;DHT22;8864;51.970;4.614;2023-08-12T05:02:58;24.80;79.80
17495;DHT22;8864;51.970;4.614;2023-08-12T05:05:27;24.70;79.80
17495;DHT22;8864;51.970;4.614;2023-08-12T05:07:54;24.70;79.70
17495;DHT22;8864;51.970;4.614;2023-08-12T05:10:21;24.70;79.70
17495;DHT22;8864;51.970;4.614;2023-08-12T05:12:48;24.70;79.90
17495;DHT22;8864;51.970;4.614;2023-08-12T05:15:17;24.80;79.90
17495;DHT22;8864;51.970;4.614;2023-08-12T05:17:45;24.70;79.90
17495;DHT22;8864;51.970;4.614;2023-08-12T05:20:12;24.70;80.10
17495;DHT22;8864;51.970;4.614;2023-08-12T05:22:42;24.70;80.10
17495;DHT22;8864;51.970;4.614;2023-08-12T05:25:10;24.70;80.20
17495;DHT22;8864;51.970;4.614;2023-08-12T05:27:37;24.70;80.40
17495;DHT22;8864;51.970;4.614;2023-08-12T05:30:05;24.70;80.40
17495;DHT22;8864;51.970;4.614;2023-08-12T05:32:32;24.70;80.30
17495;DHT22;8864;51.970;4.614;2023-08-12T05:34:59;24.70;80.30
17495;DHT22;8864;51.970;4.614;2023-08-12T05:37:26;24.70;80.30
17495;DHT22;8864;51.970;4.614;2023-08-12T05:39:54;24.70;80.60
17495;DHT22;8864;51.970;4.614;2023-08-12T05:42:21;24.70;80.80
17495;DHT22;8864;51.970;4.614;2023-08-12T05:44:48;24.70;80.70
17495;DHT22;8864;51.970;4.614;2023-08-12T05:47:15;24.70;80.60
17495;DHT22;8864;51.970;4.614;2023-08-12T05:49:42;24.70;80.70
17495;DHT22;8864;51.970;4.614;2023-08-12T05:52:09;24.70;80.80
17495;DHT22;8864;51.970;4.614;2023-08-12T05:54:36;24.70;81.30
17495;DHT22;8864;51.970;4.614;2023-08-12T05:57:05;24.80;81.60
17495;DHT22;8864;51.970;4.614;2023-08-12T05:59:31;24.70;81.60
17495;DHT22;8864;51.970;4.614;2023-08-12T06:01:59;24.70;81.60
17495;DHT22;8864;51.970;4.614;2023-08-12T06:04:26;24.70;81.40
17495;DHT22;8864;51.970;4.614;2023-08-12T06:06:53;24.70;81.40
17495;DHT22;8864;51.970;4.614;2023-08-12T06:09:21;24.70;81.40
17495;DHT22;8864;51.970;4.614;2023-08-12T06:11:48;24.70;81.50
17495;DHT22;8864;51.970;4.614;2023-08-12T06:14:16;24.70;81.30
17495;DHT22;8864;51.970;4.614;2023-08-12T06:16:44;24.70;81.30
17495;DHT22;8864;51.970;4.614;2023-08-12T06:19:11;24.70;81.30
17495;DHT22;8864;51.970;4.614;2023-08-12T06:21:38;24.70;81.30
17495;DHT22;8864;51.970;4.614;2023-08-12T06:24:05;24.70;81.30
17495;DHT22;8864;51.970;4.614;2023-08-12T06:26:32;24.70;81.40
17495;DHT22;8864;51.970;4.614;2023-08-12T06:29:00;24.70;81.40
17495;DHT22;8864;51.970;4.614;2023-08-12T06:31:28;24.70;81.40
17495;DHT22;8864;51.970;4.614;2023-08-12T06:33:55;24.70;81.50
17495;DHT22;8864;51.970;4.614;2023-08-12T06:36:23;24.70;81.60
17495;DHT22;8864;51.970;4.614;2023-08-12T06:38:50;24.70;81.60
17495;DHT22;8864;51.970;4.614;2023-08-12T06:41:17;24.70;81.60
17495;DHT22;8864;51.970;4.614;2023-08-12T06:43:44;24.70;81.60
17495;DHT22;8864;51.970;4.614;2023-08-12T06:46:11;24.70;81.50
17495;DHT22;8864;51.970;4.614;2023-08-12T06:48:39;24.70;81.60
17495;DHT22;8864;51.970;4.614;2023-08-12T06:51:06;24.70;81.60
17495;DHT22;8864;51.970;4.614;2023-08-12T06:53:36;24.70;81.60
17495;DHT22;8864;51.970;4.614;2023-08-12T06:56:05;24.80;81.70
17495;DHT22;8864;51.970;4.614;2023-08-12T06:58:32;24.70;81.70
17495;DHT22;8864;51.970;4.614;2023-08-12T07:01:00;24.70;82.40
17495;DHT22;8864;51.970;4.614;2023-08-12T07:03:27;24.70;81.60
17495;DHT22;8864;51.970;4.614;2023-08-12T07:05:55;24.70;81.70
17495;DHT22;8864;51.970;4.614;2023-08-12T07:08:23;24.70;81.60
17495;DHT22;8864;51.970;4.614;2023-08-12T07:10:50;24.70;81.70
17495;DHT22;8864;51.970;4.614;2023-08-12T07:13:17;24.70;81.70
17495;DHT22;8864;51.970;4.614;2023-08-12T07:15:44;24.70;81.70
17495;DHT22;8864;51.970;4.614;2023-08-12T07:18:11;24.70;81.90
17495;DHT22;8864;51.970;4.614;2023-08-12T07:20:38;24.70;81.90
17495;DHT22;8864;51.970;4.614;2023-08-12T07:23:06;24.80;82.90
17495;DHT22;8864;51.970;4.614;2023-08-12T07:25:34;24.70;82.10
17495;DHT22;8864;51.970;4.614;2023-08-12T07:28:01;24.70;82.00
17495;DHT22;8864;51.970;4.614;2023-08-12T07:30:28;24.70;81.90
17495;DHT22;8864;51.970;4.614;2023-08-12T07:32:54;24.70;81.60
17495;DHT22;8864;51.970;4.614;2023-08-12T07:35:22;24.70;81.40
17495;DHT22;8864;51.970;4.614;2023-08-12T07:37:49;24.70;81.40
17495;DHT22;8864;51.970;4.614;2023-08-12T07:40:17;24.70;81.20
17495;DHT22;8864;51.970;4.614;2023-08-12T07:42:44;24.70;81.10
17495;DHT22;8864;51.970;4.614;2023-08-12T07:45:11;24.70;81.10
17495;DHT22;8864;51.970;4.614;2023-08-12T07:47:39;24.70;81.00
17495;DHT22;8864;51.970;4.614;2023-08-12T07:50:06;24.70;81.30
17495;DHT22;8864;51.970;4.614;2023-08-12T07:52:34;24.70;81.20
17495;DHT22;8864;51.970;4.614;2023-08-12T07:55:01;24.80;81.20
17495;DHT22;8864;51.970;4.614;2023-08-12T07:57:31;24.80;81.10
17495;DHT22;8864;51.970;4.614;2023-08-12T07:59:58;24.80;81.10
17495;DHT22;8864;51.970;4.614;2023-08-12T08:02:25;24.80;80.80
17495;DHT22;8864;51.970;4.614;2023-08-12T08:04:52;24.80;80.50
17495;DHT22;8864;51.970;4.614;2023-08-12T08:07:19;24.80;80.30
17495;DHT22;8864;51.970;4.614;2023-08-12T08:09:46;24.80;80.20
17495;DHT22;8864;51.970;4.614;2023-08-12T08:12:14;24.80;80.00
17495;DHT22;8864;51.970;4.614;2023-08-12T08:14:42;24.70;79.80
17495;DHT22;8864;51.970;4.614;2023-08-12T08:17:09;24.70;79.70
17495;DHT22;8864;51.970;4.614;2023-08-12T08:19:36;24.80;79.60
17495;DHT22;8864;51.970;4.614;2023-08-12T08:22:04;24.80;79.60
17495;DHT22;8864;51.970;4.614;2023-08-12T08:24:31;24.70;79.40
17495;DHT22;8864;51.970;4.614;2023-08-12T08:26:59;24.70;79.30
17495;DHT22;8864;51.970;4.614;2023-08-12T08:29:26;24.70;79.40
17495;DHT22;8864;51.970;4.614;2023-08-12T08:31:55;24.70;79.30
17495;DHT22;8864;51.970;4.614;2023-08-12T08:34:22;24.70;79.30
17495;DHT22;8864;51.970;4.614;2023-08-12T08:36:50;24.70;79.30
17495;DHT22;8864;51.970;4.614;2023-08-12T08:39:17;24.80;79.20
17495;DHT22;8864;51.970;4.614;2023-08-12T08:41:48;24.80;79.20
17495;DHT22;8864;51.970;4.614;2023-08-12T08:44:15;24.80;79.20
17495;DHT22;8864;51.970;4.614;2023-08-12T08:46:44;24.80;79.20
17495;DHT22;8864;51.970;4.614;2023-08-12T08:49:15;24.80;79.20
17495;DHT22;8864;51.970;4.614;2023-08-12T08:51:43;24.80;79.30
17495;DHT22;8864;51.970;4.614;2023-08-12T08:54:14;24.80;79.30
17495;DHT22;8864;51.970;4.614;2023-08-12T08:56:41;24.80;79.30
17495;DHT22;8864;51.970;4.614;2023-08-12T08:59:08;24.80;79.30
17495;DHT22;8864;51.970;4.614;2023-08-12T09:01:35;24.80;79.30
17495;DHT22;8864;51.970;4.614;2023-08-12T09:04:03;24.80;79.30
17495;DHT22;8864;51.970;4.614;2023-08-12T09:06:36;24.80;79.10
17495;DHT22;8864;51.970;4.614;2023-08-12T09:09:06;24.80;79.20
17495;DHT22;8864;51.970;4.614;2023-08-12T09:11:38;24.80;79.30
17495;DHT22;8864;51.970;4.614;2023-08-12T09:14:06;24.80;79.10
17495;DHT22;8864;51.970;4.614;2023-08-12T09:16:34;24.80;79.10
17495;DHT22;8864;51.970;4.614;2023-08-12T09:19:01;24.80;79.00
17495;DHT22;8864;51.970;4.614;2023-08-12T09:21:28;24.80;79.00
17495;DHT22;8864;51.970;4.614;2023-08-12T09:23:57;24.80;78.90
17495;DHT22;8864;51.970;4.614;2023-08-12T09:26:29;24.80;78.80
17495;DHT22;8864;51.970;4.614;2023-08-12T09:28:58;24.80;78.80
17495;DHT22;8864;51.970;4.614;2023-08-12T09:31:27;24.80;78.60
17495;DHT22;8864;51.970;4.614;2023-08-12T09:33:54;24.90;78.70
17495;DHT22;8864;51.970;4.614;2023-08-12T09:36:25;24.90;78.70
17495;DHT22;8864;51.970;4.614;2023-08-12T09:38:55;24.90;78.60
17495;DHT22;8864;51.970;4.614;2023-08-12T09:41:22;24.90;78.60
17495;DHT22;8864;51.970;4.614;2023-08-12T09:43:51;24.90;78.50
17495;DHT22;8864;51.970;4.614;2023-08-12T09:46:21;24.90;78.50
17495;DHT22;8864;51.970;4.614;2023-08-12T09:48:49;24.90;78.40
17495;DHT22;8864;51.970;4.614;2023-08-12T09:51:17;24.90;78.30
17495;DHT22;8864;51.970;4.614;2023-08-12T09:53:45;24.90;78.20
17495;DHT22;8864;51.970;4.614;2023-08-12T09:56:18;24.90;78.20
17495;DHT22;8864;51.970;4.614;2023-08-12T09:58:47;24.90;78.00
17495;DHT22;8864;51.970;4.614;2023-08-12T10:01:16;25.00;78.10
17495;DHT22;8864;51.970;4.614;2023-08-12T10:03:49;24.90;78.00
17495;DHT22;8864;51.970;4.614;2023-08-12T10:06:17;25.00;78.00
17495;DHT22;8864;51.970;4.614;2023-08-12T10:08:46;25.00;77.80
17495;DHT22;8864;51.970;4.614;2023-08-12T10:11:15;25.00;77.80
17495;DHT22;8864;51.970;4.614;2023-08-12T10:13:42;24.90;77.60
17495;DHT22;8864;51.970;4.614;2023-08-12T10:16:10;24.90;77.60
17495;DHT22;8864;51.970;4.614;2023-08-12T10:18:39;24.90;77.40
17495;DHT22;8864;51.970;4.614;2023-08-12T10:21:09;25.00;77.40
17495;DHT22;8864;51.970;4.614;2023-08-12T10:23:37;25.00;77.30
17495;DHT22;8864;51.970;4.614;2023-08-12T10:26:06;25.00;77.30
17495;DHT22;8864;51.970;4.614;2023-08-12T10:28:35;25.00;77.40
17495;DHT22;8864;51.970;4.614;2023-08-12T10:31:04;24.90;77.30
17495;DHT22;8864;51.970;4.614;2023-08-12T10:33:35;24.90;77.20
17495;DHT22;8864;51.970;4.614;2023-08-12T10:36:04;24.90;77.30
17495;DHT22;8864;51.970;4.614;2023-08-12T10:38:34;24.90;77.20
17495;DHT22;8864;51.970;4.614;2023-08-12T10:41:18;24.90;77.30
17495;DHT22;8864;51.970;4.614;2023-08-12T10:43:58;25.00;77.20
17495;DHT22;8864;51.970;4.614;2023-08-12T10:46:30;24.90;77.10
17495;DHT22;8864;51.970;4.614;2023-08-12T10:49:04;24.90;77.10
17495;DHT22;8864;51.970;4.614;2023-08-12T10:51:43;24.90;77.10
17495;DHT22;8864;51.970;4.614;2023-08-12T10:54:14;25.00;77.20
17495;DHT22;8864;51.970;4.614;2023-08-12T10:57:12;24.90;77.10
17495;DHT22;8864;51.970;4.614;2023-08-12T10:59:52;24.90;77.10
17495;DHT22;8864;51.970;4.614;2023-08-12T11:02:25;24.90;77.10
17495;DHT22;8864;51.970;4.614;2023-08-12T11:04:54;24.90;77.10
17495;DHT22;8864;51.970;4.614;2023-08-12T11:07:22;24.90;77.10
17495;DHT22;8864;51.970;4.614;2023-08-12T11:09:59;25.00;77.10
17495;DHT22;8864;51.970;4.614;2023-08-12T11:12:30;24.90;77.00
17495;DHT22;8864;51.970;4.614;2023-08-12T11:14:59;24.90;77.00
17495;DHT22;8864;51.970;4.614;2023-08-12T11:17:33;24.90;76.90
17495;DHT22;8864;51.970;4.614;2023-08-12T11:20:01;25.00;77.00
17495;DHT22;8864;51.970;4.614;2023-08-12T11:22:31;24.90;76.90
17495;DHT22;8864;51.970;4.614;2023-08-12T11:25:00;24.90;76.90
17495;DHT22;8864;51.970;4.614;2023-08-12T11:27:28;25.00;76.90
17495;DHT22;8864;51.970;4.614;2023-08-12T11:29:55;24.90;76.80
17495;DHT22;8864;51.970;4.614;2023-08-12T11:32:24;25.00;76.80
17495;DHT22;8864;51.970;4.614;2023-08-12T11:34:51;25.00;76.80
17495;DHT22;8864;51.970;4.614;2023-08-12T11:37:18;25.00;76.70
17495;DHT22;8864;51.970;4.614;2023-08-12T11:39:45;25.00;76.70
17495;DHT22;8864;51.970;4.614;2023-08-12T11:42:12;25.00;76.70
17495;DHT22;8864;51.970;4.614;2023-08-12T11:44:40;25.00;76.70
17495;DHT22;8864;51.970;4.614;2023-08-12T11:47:07;25.00;76.70
17495;DHT22;8864;51.970;4.614;2023-08-12T11:49:36;25.00;76.70
17495;DHT22;8864;51.970;4.614;2023-08-12T11:52:04;25.00;76.60
17495;DHT22;8864;51.970;4.614;2023-08-12T11:54:31;25.00;76.60
17495;DHT22;8864;51.970;4.614;2023-08-12T11:56:59;25.00;76.60
17495;DHT22;8864;51.970;4.614;2023-08-12T11:59:26;25.00;76.60
17495;DHT22;8864;51.970;4.614;2023-08-12T12:01:54;25.00;76.60
17495;DHT22;8864;51.970;4.614;2023-08-12T12:04:22;25.00;76.60
17495;DHT22;8864;51.970;4.614;2023-08-12T12:06:51;25.00;76.50
17495;DHT22;8864;51.970;4.614;2023-08-12T12:09:18;25.00;76.40
17495;DHT22;8864;51.970;4.614;2023-08-12T12:11:45;25.00;76.40
17495;DHT22;8864;51.970;4.614;2023-08-12T12:14:13;25.00;76.40
17495;DHT22;8864;51.970;4.614;2023-08-12T12:16:41;25.00;76.30
17495;DHT22;8864;51.970;4.614;2023-08-12T12:19:16;25.00;76.50
17495;DHT22;8864;51.970;4.614;2023-08-12T12:21:46;25.00;76.20
17495;DHT22;8864;51.970;4.614;2023-08-12T12:24:15;25.00;76.10
17495;DHT22;8864;51.970;4.614;2023-08-12T12:26:42;25.00;76.30
17495;DHT22;8864;51.970;4.614;2023-08-12T12:29:09;25.00;76.30
17495;DHT22;8864;51.970;4.614;2023-08-12T12:31:37;25.00;76.20
17495;DHT22;8864;51.970;4.614;2023-08-12T12:34:05;25.00;76.10
17495;DHT22;8864;51.970;4.614;2023-08-12T12:36:34;25.00;76.10
17495;DHT22;8864;51.970;4.614;2023-08-12T12:39:02;25.00;76.10
17495;DHT22;8864;51.970;4.614;2023-08-12T12:41:31;25.00;76.10
17495;DHT22;8864;51.970;4.614;2023-08-12T12:43:59;25.10;76.30
17495;DHT22;8864;51.970;4.614;2023-08-12T12:46:26;25.10;76.30
17495;DHT22;8864;51.970;4.614;2023-08-12T12:48:56;25.10;76.30
17495;DHT22;8864;51.970;4.614;2023-08-12T12:51:24;25.10;76.90
17495;DHT22;8864;51.970;4.614;2023-08-12T12:53:51;25.10;76.10
17495;DHT22;8864;51.970;4.614;2023-08-12T12:56:21;25.10;76.10
17495;DHT22;8864;51.970;4.614;2023-08-12T12:58:49;25.10;76.00
17495;DHT22;8864;51.970;4.614;2023-08-12T13:01:16;25.10;76.00
17495;DHT22;8864;51.970;4.614;2023-08-12T13:03:43;25.10;76.00
17495;DHT22;8864;51.970;4.614;2023-08-12T13:06:10;25.10;76.00
17495;DHT22;8864;51.970;4.614;2023-08-12T13:08:37;25.10;75.80
17495;DHT22;8864;51.970;4.614;2023-08-12T13:11:04;25.10;75.80
17495;DHT22;8864;51.970;4.614;2023-08-12T13:13:31;25.20;75.90
17495;DHT22;8864;51.970;4.614;2023-08-12T13:15:59;25.10;75.60
17495;DHT22;8864;51.970;4.614;2023-08-12T13:18:26;25.20;75.60
17495;DHT22;8864;51.970;4.614;2023-08-12T13:20:54;25.20;75.50
17495;DHT22;8864;51.970;4.614;2023-08-12T13:23:21;25.20;75.40
17495;DHT22;8864;51.970;4.614;2023-08-12T13:25:48;25.20;75.20
17495;DHT22;8864;51.970;4.614;2023-08-12T13:28:15;25.20;75.10
17495;DHT22;8864;51.970;4.614;2023-08-12T13:30:42;25.20;75.00
17495;DHT22;8864;51.970;4.614;2023-08-12T13:33:10;25.20;74.80
17495;DHT22;8864;51.970;4.614;2023-08-12T13:35:37;25.20;74.80
17495;DHT22;8864;51.970;4.614;2023-08-12T13:38:04;25.20;74.50
17495;DHT22;8864;51.970;4.614;2023-08-12T13:40:31;25.20;74.50
17495;DHT22;8864;51.970;4.614;2023-08-12T13:42:58;25.30;74.30
17495;DHT22;8864;51.970;4.614;2023-08-12T13:45:25;25.30;74.30
17495;DHT22;8864;51.970;4.614;2023-08-12T13:47:52;25.30;74.20
17495;DHT22;8864;51.970;4.614;2023-08-12T13:50:21;25.30;74.20
17495;DHT22;8864;51.970;4.614;2023-08-12T13:52:48;25.30;74.20
17495;DHT22;8864;51.970;4.614;2023-08-12T13:55:16;25.30;74.00
17495;DHT22;8864;51.970;4.614;2023-08-12T13:57:43;25.40;74.30
17495;DHT22;8864;51.970;4.614;2023-08-12T14:00:11;25.40;73.90
17495;DHT22;8864;51.970;4.614;2023-08-12T14:02:40;25.40;73.80
17495;DHT22;8864;51.970;4.614;2023-08-12T14:05:08;25.40;73.70
17495;DHT22;8864;51.970;4.614;2023-08-12T14:07:37;25.40;73.40
17495;DHT22;8864;51.970;4.614;2023-08-12T14:10:05;25.40;73.30
17495;DHT22;8864;51.970;4.614;2023-08-12T14:12:32;25.40;73.20
17495;DHT22;8864;51.970;4.614;2023-08-12T14:14:59;25.40;73.10
17495;DHT22;8864;51.970;4.614;2023-08-12T14:17:26;25.40;72.90
17495;DHT22;8864;51.970;4.614;2023-08-12T14:19:54;25.40;72.80
17495;DHT22;8864;51.970;4.614;2023-08-12T14:22:21;25.40;72.60
17495;DHT22;8864;51.970;4.614;2023-08-12T14:24:49;25.40;72.60
17495;DHT22;8864;51.970;4.614;2023-08-12T14:27:17;25.40;72.40
17495;DHT22;8864;51.970;4.614;2023-08-12T14:29:44;25.40;72.30
17495;DHT22;8864;51.970;4.614;2023-08-12T14:32:11;25.40;72.30
17495;DHT22;8864;51.970;4.614;2023-08-12T14:34:41;25.50;72.40
17495;DHT22;8864;51.970;4.614;2023-08-12T14:37:10;25.40;72.40
17495;DHT22;8864;51.970;4.614;2023-08-12T14:39:37;25.50;72.40
17495;DHT22;8864;51.970;4.614;2023-08-12T14:42:06;25.50;72.50
17495;DHT22;8864;51.970;4.614;2023-08-12T14:44:34;25.50;72.40
17495;DHT22;8864;51.970;4.614;2023-08-12T14:47:01;25.50;72.40
17495;DHT22;8864;51.970;4.614;2023-08-12T14:49:29;25.50;72.20
17495;DHT22;8864;51.970;4.614;2023-08-12T14:51:56;25.50;71.30
17495;DHT22;8864;51.970;4.614;2023-08-12T14:54:23;25.50;70.80
17495;DHT22;8864;51.970;4.614;2023-08-12T14:56:51;25.60;71.10
17495;DHT22;8864;51.970;4.614;2023-08-12T14:59:19;25.50;70.60
17495;DHT22;8864;51.970;4.614;2023-08-12T15:01:46;25.50;69.80
17495;DHT22;8864;51.970;4.614;2023-08-12T15:04:13;25.50;69.80
17495;DHT22;8864;51.970;4.614;2023-08-12T15:06:42;25.60;69.90
17495;DHT22;8864;51.970;4.614;2023-08-12T15:09:09;25.60;70.00
17495;DHT22;8864;51.970;4.614;2023-08-12T15:11:36;25.60;70.20
17495;DHT22;8864;51.970;4.614;2023-08-12T15:14:04;25.60;70.00
17495;DHT22;8864;51.970;4.614;2023-08-12T15:16:32;25.60;70.00
17495;DHT22;8864;51.970;4.614;2023-08-12T15:18:59;25.60;70.00
17495;DHT22;8864;51.970;4.614;2023-08-12T15:21:26;25.60;70.00
17495;DHT22;8864;51.970;4.614;2023-08-12T15:23:53;25.70;70.10
17495;DHT22;8864;51.970;4.614;2023-08-12T15:26:21;25.60;70.00
17495;DHT22;8864;51.970;4.614;2023-08-12T15:28:49;25.70;69.60
17495;DHT22;8864;51.970;4.614;2023-08-12T15:31:16;25.70;69.00
17495;DHT22;8864;51.970;4.614;2023-08-12T15:33:45;25.70;68.60
17495;DHT22;8864;51.970;4.614;2023-08-12T15:36:12;25.70;68.50
17495;DHT22;8864;51.970;4.614;2023-08-12T15:38:39;25.70;68.20
17495;DHT22;8864;51.970;4.614;2023-08-12T15:41:12;25.70;67.90
17495;DHT22;8864;51.970;4.614;2023-08-12T15:43:39;25.70;67.60
17495;DHT22;8864;51.970;4.614;2023-08-12T15:46:06;25.70;67.20
17495;DHT22;8864;51.970;4.614;2023-08-12T15:48:34;25.70;67.10
17495;DHT22;8864;51.970;4.614;2023-08-12T15:51:02;25.80;67.10